createdAt,value
2023-04-27T00:00:57.327Z,69.78
2023-04-27T00:01:57.330Z,69.89
2023-04-27T00:02:57.429Z,68.96
2023-04-27T00:03:57.362Z,69.17
2023-04-27T00:04:57.465Z,68.96
2023-04-27T00:05:57.328Z,68.75
2023-04-27T00:06:57.274Z,69.68
2023-04-27T00:07:57.258Z,69.89
2023-04-27T00:08:57.231Z,69.78
2023-04-27T00:09:57.257Z,69.99
2023-04-27T00:10:57.222Z,69.78
2023-04-27T00:11:57.203Z,70.20
2023-04-27T00:12:57.190Z,69.85
2023-04-27T00:13:57.215Z,69.48
2023-04-27T00:14:57.192Z,70.20
2023-04-27T00:15:57.207Z,69.99
2023-04-27T00:16:57.155Z,69.89
2023-04-27T00:17:57.174Z,69.68
2023-04-27T00:18:57.138Z,69.99
2023-04-27T00:19:57.149Z,70.23
2023-04-27T00:20:57.150Z,70.20
2023-04-27T00:21:57.129Z,69.78
2023-04-27T00:22:57.094Z,69.89
2023-04-27T00:23:57.093Z,70.51
2023-04-27T00:24:57.073Z,70.61
2023-04-27T00:25:57.076Z,70.85
2023-04-27T00:26:57.091Z,71.23
2023-04-27T00:27:57.049Z,71.26
2023-04-27T00:28:57.041Z,71.06
2023-04-27T00:29:57.043Z,71.16
2023-04-27T00:30:57.023Z,71.47
2023-04-27T00:31:57.036Z,71.16
2023-04-27T00:32:57.002Z,71.37
2023-04-27T00:33:56.991Z,72.43
2023-04-27T00:34:56.988Z,72.53
2023-04-27T00:35:56.967Z,72.33
2023-04-27T00:36:56.984Z,72.53
2023-04-27T00:37:56.951Z,71.98
2023-04-27T00:38:56.949Z,72.02
2023-04-27T00:39:56.923Z,72.02
2023-04-27T00:40:56.934Z,71.81
2023-04-27T00:41:56.933Z,71.16
2023-04-27T00:42:56.916Z,72.02
2023-04-27T00:43:56.884Z,71.92
2023-04-27T00:44:56.897Z,71.30
2023-04-27T00:45:56.930Z,72.22
2023-04-27T00:46:56.857Z,72.43
2023-04-27T00:47:56.967Z,72.53
2023-04-27T00:48:56.850Z,72.53
2023-04-27T00:49:56.860Z,71.92
2023-04-27T00:50:56.816Z,72.33
2023-04-27T00:51:56.813Z,72.53
2023-04-27T00:52:56.790Z,72.85
2023-04-27T00:53:56.854Z,72.47
2023-04-27T00:54:56.799Z,72.67
2023-04-27T00:55:56.783Z,72.88
2023-04-27T00:56:56.768Z,72.78
2023-04-27T00:57:56.765Z,72.85
2023-04-27T00:58:56.742Z,72.67
2023-04-27T00:59:56.751Z,73.36
2023-04-27T01:00:56.757Z,72.78
2023-04-27T01:01:56.747Z,73.50
2023-04-27T01:02:56.938Z,73.60
2023-04-27T01:03:56.966Z,73.39
2023-04-27T01:04:56.678Z,72.67
2023-04-27T01:05:56.680Z,72.05
2023-04-27T01:06:56.661Z,72.47
2023-04-27T01:07:56.663Z,72.47
2023-04-27T01:08:56.638Z,72.47
2023-04-27T01:09:56.622Z,72.64
2023-04-27T01:10:56.612Z,72.36
2023-04-27T01:11:56.610Z,72.36
2023-04-27T01:12:56.646Z,72.47
2023-04-27T01:13:56.594Z,72.88
2023-04-27T01:14:56.582Z,73.29
2023-04-27T01:15:56.567Z,73.60
2023-04-27T01:16:56.626Z,73.81
2023-04-27T01:17:56.589Z,74.12
2023-04-27T01:18:56.546Z,73.74
2023-04-27T01:19:56.527Z,74.57
2023-04-27T01:20:56.519Z,74.67
2023-04-27T01:21:56.520Z,75.19
2023-04-27T01:22:56.496Z,74.98
2023-04-27T01:23:56.504Z,75.50
2023-04-27T01:24:56.538Z,75.09
2023-04-27T01:25:56.476Z,75.60
2023-04-27T01:26:56.496Z,75.81
2023-04-27T01:27:56.489Z,76.12
2023-04-27T01:28:56.481Z,75.91
2023-04-27T01:29:56.441Z,76.22
2023-04-27T01:30:56.484Z,75.81
2023-04-27T01:31:56.411Z,75.60
2023-04-27T01:32:56.442Z,75.50
2023-04-27T01:33:56.445Z,75.29
2023-04-27T01:34:56.389Z,76.12
2023-04-27T01:35:56.391Z,75.70
2023-04-27T01:36:56.367Z,76.01
2023-04-27T01:37:56.384Z,75.67
2023-04-27T01:38:56.383Z,76.12
2023-04-27T01:39:56.346Z,75.70
2023-04-27T01:40:56.342Z,75.60
2023-04-27T01:41:58.387Z,75.88
2023-04-27T01:42:57.315Z,75.81
2023-04-27T01:43:56.325Z,75.81
2023-04-27T01:44:56.308Z,76.32
2023-04-27T01:45:56.333Z,76.43
2023-04-27T01:46:56.281Z,76.22
2023-04-27T01:47:56.330Z,76.18
2023-04-27T01:48:56.258Z,76.12
2023-04-27T01:49:56.264Z,75.98
2023-04-27T01:50:56.267Z,76.60
2023-04-27T01:51:56.225Z,76.39
2023-04-27T01:52:56.249Z,75.46
2023-04-27T01:53:56.209Z,75.46
2023-04-27T01:54:57.224Z,75.78
2023-04-27T01:55:56.204Z,75.67
2023-04-27T01:56:57.212Z,75.98
2023-04-27T01:57:56.174Z,75.88
2023-04-27T01:58:56.157Z,75.67
2023-04-27T01:59:56.266Z,74.91
2023-04-27T02:00:56.154Z,75.12
2023-04-27T02:01:56.222Z,75.63
2023-04-27T02:02:56.205Z,75.05
2023-04-27T02:03:56.278Z,75.26
2023-04-27T02:04:56.192Z,75.36
2023-04-27T02:05:56.100Z,76.01
2023-04-27T02:06:56.094Z,75.57
2023-04-27T02:07:56.080Z,75.57
2023-04-27T02:08:56.084Z,76.09
2023-04-27T02:09:56.071Z,76.01
2023-04-27T02:10:56.050Z,76.09
2023-04-27T02:11:56.046Z,76.22
2023-04-27T02:12:56.038Z,76.32
2023-04-27T02:13:56.045Z,76.53
2023-04-27T02:14:56.029Z,76.18
2023-04-27T02:15:56.054Z,76.39
2023-04-27T02:16:55.996Z,76.53
2023-04-27T02:17:56.101Z,76.09
2023-04-27T02:18:55.999Z,76.50
2023-04-27T02:19:55.981Z,76.43
2023-04-27T02:20:55.971Z,75.98
2023-04-27T02:21:55.970Z,76.29
2023-04-27T02:22:55.940Z,76.09
2023-04-27T02:23:55.922Z,76.39
2023-04-27T02:24:55.930Z,75.98
2023-04-27T02:25:55.903Z,76.09
2023-04-27T02:26:55.906Z,75.98
2023-04-27T02:27:55.904Z,76.18
2023-04-27T02:28:55.931Z,77.01
2023-04-27T02:29:55.893Z,76.18
2023-04-27T02:30:55.853Z,76.60
2023-04-27T02:31:55.942Z,76.36
2023-04-27T02:32:55.859Z,76.70
2023-04-27T02:33:55.842Z,75.98
2023-04-27T02:34:55.819Z,75.74
2023-04-27T02:35:55.822Z,75.78
2023-04-27T02:36:55.795Z,75.88
2023-04-27T02:37:55.791Z,75.78
2023-04-27T02:38:55.779Z,76.43
2023-04-27T02:39:55.775Z,77.05
2023-04-27T02:40:55.781Z,77.15
2023-04-27T02:41:55.767Z,77.91
2023-04-27T02:42:55.739Z,77.91
2023-04-27T02:43:55.746Z,77.70
2023-04-27T02:44:55.721Z,78.12
2023-04-27T02:45:55.704Z,77.95
2023-04-27T02:46:55.746Z,77.29
2023-04-27T02:47:55.781Z,77.50
2023-04-27T02:48:55.704Z,77.39
2023-04-27T02:49:55.698Z,78.12
2023-04-27T02:50:55.663Z,77.91
2023-04-27T02:51:55.631Z,77.60
2023-04-27T02:52:55.642Z,77.67
2023-04-27T02:53:55.643Z,77.77
2023-04-27T02:54:55.630Z,77.77
2023-04-27T02:55:55.604Z,77.77
2023-04-27T02:56:55.631Z,77.26
2023-04-27T02:57:55.585Z,77.43
2023-04-27T02:58:55.575Z,77.64
2023-04-27T02:59:55.627Z,77.22
2023-04-27T03:00:55.658Z,77.33
2023-04-27T03:01:55.568Z,77.01
2023-04-27T03:02:55.687Z,76.29
2023-04-27T03:03:55.694Z,76.15
2023-04-27T03:04:55.554Z,76.36
2023-04-27T03:05:55.534Z,76.26
2023-04-27T03:06:55.523Z,75.63
2023-04-27T03:08:27.412Z,76.12
2023-04-27T03:08:55.501Z,75.81
2023-04-27T03:09:55.482Z,75.91
2023-04-27T03:10:55.492Z,76.32
2023-04-27T03:11:55.464Z,75.49
2023-04-27T03:12:55.460Z,75.09
2023-04-27T03:13:55.446Z,74.71
2023-04-27T03:14:55.421Z,74.81
2023-04-27T03:15:55.434Z,75.53
2023-04-27T03:16:55.453Z,75.53
2023-04-27T03:17:55.481Z,75.43
2023-04-27T03:18:55.396Z,75.63
2023-04-27T03:19:55.461Z,75.63
2023-04-27T03:20:55.375Z,75.98
2023-04-27T03:21:55.366Z,76.91
2023-04-27T03:22:55.394Z,76.18
2023-04-27T03:23:55.363Z,76.70
2023-04-27T03:24:55.333Z,76.18
2023-04-27T03:25:55.360Z,76.36
2023-04-27T03:26:55.323Z,76.77
2023-04-27T03:27:55.316Z,76.67
2023-04-27T03:28:55.317Z,76.15
2023-04-27T03:29:55.286Z,76.18
2023-04-27T03:30:55.292Z,76.36
2023-04-27T03:31:55.315Z,76.50
2023-04-27T03:32:55.305Z,76.18
2023-04-27T03:33:55.270Z,77.01
2023-04-27T03:34:55.292Z,77.01
2023-04-27T03:35:55.242Z,77.64
2023-04-27T03:36:55.222Z,77.33
2023-04-27T03:37:55.220Z,77.43
2023-04-27T03:38:55.210Z,77.64
2023-04-27T03:39:55.219Z,77.22
2023-04-27T03:40:55.202Z,77.64
2023-04-27T03:41:55.228Z,77.94
2023-04-27T03:42:55.484Z,77.56
2023-04-27T03:43:55.231Z,78.08
2023-04-27T03:44:55.157Z,77.81
2023-04-27T03:45:55.232Z,79.16
2023-04-27T03:46:55.125Z,78.74
2023-04-27T03:47:55.167Z,79.05
2023-04-27T03:48:55.142Z,79.36
2023-04-27T03:49:55.111Z,79.67
2023-04-27T03:50:55.090Z,79.36
2023-04-27T03:51:55.141Z,79.67
2023-04-27T03:52:55.066Z,79.67
2023-04-27T03:53:55.080Z,80.40
2023-04-27T03:54:55.059Z,80.54
2023-04-27T03:55:55.041Z,80.71
2023-04-27T03:56:55.025Z,80.54
2023-04-27T03:57:55.048Z,80.64
2023-04-27T03:58:55.037Z,80.74
2023-04-27T03:59:55.028Z,80.54
2023-04-27T04:00:54.993Z,80.95
2023-04-27T04:01:55.040Z,81.16
2023-04-27T04:02:55.123Z,81.47
2023-04-27T04:03:55.132Z,80.64
2023-04-27T04:04:55.060Z,81.26
2023-04-27T04:05:54.985Z,80.54
2023-04-27T04:06:54.923Z,80.95
2023-04-27T04:07:54.918Z,80.78
2023-04-27T04:08:54.945Z,81.47
2023-04-27T04:09:54.908Z,81.16
2023-04-27T04:10:54.895Z,80.54
2023-04-27T04:11:54.882Z,81.47
2023-04-27T04:12:54.867Z,80.74
2023-04-27T04:13:54.887Z,80.74
2023-04-27T04:14:54.890Z,80.64
2023-04-27T04:15:54.867Z,81.16
2023-04-27T04:16:54.867Z,80.43
2023-04-27T04:17:54.863Z,80.64
2023-04-27T04:18:54.822Z,80.54
2023-04-27T04:19:54.825Z,80.50
2023-04-27T04:20:54.829Z,80.95
2023-04-27T04:21:54.820Z,80.74
2023-04-27T04:22:54.787Z,80.54
2023-04-27T04:23:54.776Z,80.64
2023-04-27T04:24:54.759Z,80.64
2023-04-27T04:25:54.765Z,80.85
2023-04-27T04:26:54.744Z,80.50
2023-04-27T04:27:54.736Z,80.29
2023-04-27T04:28:54.719Z,80.71
2023-04-27T04:29:54.716Z,80.81
2023-04-27T04:30:54.808Z,80.43
2023-04-27T04:31:54.691Z,80.54
2023-04-27T04:32:54.706Z,80.85
2023-04-27T04:33:54.687Z,80.71
2023-04-27T04:34:54.692Z,80.54
2023-04-27T04:35:54.686Z,81.26
2023-04-27T04:36:54.629Z,81.16
2023-04-27T04:37:54.635Z,81.47
2023-04-27T04:38:54.607Z,80.43
2023-04-27T04:39:54.649Z,80.50
2023-04-27T04:40:54.614Z,80.71
2023-04-27T04:41:54.592Z,80.91
2023-04-27T04:42:54.582Z,80.60
2023-04-27T04:43:54.575Z,80.19
2023-04-27T04:44:54.573Z,80.08
2023-04-27T04:45:54.548Z,79.22
2023-04-27T04:46:54.642Z,79.60
2023-04-27T04:47:54.645Z,78.77
2023-04-27T04:48:54.945Z,78.67
2023-04-27T04:49:55.522Z,78.56
2023-04-27T04:50:54.511Z,78.88
2023-04-27T04:51:54.520Z,78.98
2023-04-27T04:52:54.503Z,78.46
2023-04-27T04:53:54.478Z,78.88
2023-04-27T04:54:54.489Z,78.77
2023-04-27T04:55:54.444Z,78.56
2023-04-27T04:56:54.446Z,78.67
2023-04-27T04:57:54.441Z,78.67
2023-04-27T04:58:54.419Z,77.64
2023-04-27T04:59:54.444Z,78.22
2023-04-27T05:00:54.432Z,77.46
2023-04-27T05:01:54.407Z,77.46
2023-04-27T05:02:54.595Z,77.04
2023-04-27T05:03:54.481Z,77.25
2023-04-27T05:04:54.577Z,75.81
2023-04-27T05:05:54.384Z,75.70
2023-04-27T05:06:54.347Z,75.60
2023-04-27T05:07:54.353Z,75.36
2023-04-27T05:08:54.356Z,75.15
2023-04-27T05:09:54.321Z,74.63
2023-04-27T05:10:54.338Z,74.60
2023-04-27T05:11:54.305Z,73.91
2023-04-27T05:12:54.292Z,73.39
2023-04-27T05:13:54.289Z,73.77
2023-04-27T05:14:54.277Z,74.40
2023-04-27T05:15:54.306Z,75.05
2023-04-27T05:16:54.271Z,74.53
2023-04-27T05:17:54.376Z,75.36
2023-04-27T05:18:54.227Z,74.81
2023-04-27T05:19:54.246Z,73.57
2023-04-27T05:20:54.207Z,73.81
2023-04-27T05:21:54.242Z,73.77
2023-04-27T05:22:54.211Z,74.60
2023-04-27T05:23:54.179Z,73.68
2023-04-27T05:24:54.163Z,74.50
2023-04-27T05:25:54.154Z,73.77
2023-04-27T05:26:54.163Z,74.08
2023-04-27T05:27:54.153Z,74.29
2023-04-27T05:28:54.152Z,73.77
2023-04-27T05:29:54.131Z,73.57
2023-04-27T05:30:54.147Z,73.85
2023-04-27T05:31:54.174Z,73.57
2023-04-27T05:32:54.121Z,73.54
2023-04-27T05:33:54.075Z,73.30
2023-04-27T05:34:54.111Z,72.81
2023-04-27T05:35:54.058Z,68.71
2023-04-27T05:36:54.066Z,65.36
2023-04-27T05:37:54.046Z,63.84
2023-04-27T05:38:54.031Z,62.01
2023-04-27T05:39:54.047Z,59.94
2023-04-27T05:40:55.496Z,59.89
2023-04-27T05:41:55.007Z,61.55
2023-04-27T05:42:53.989Z,62.88
2023-04-27T05:43:53.990Z,61.00
2023-04-27T05:44:53.993Z,57.65
2023-04-27T05:45:54.035Z,55.87
2023-04-27T05:46:53.948Z,55.89
2023-04-27T05:47:54.023Z,55.69
2023-04-27T05:48:53.937Z,54.54
2023-04-27T05:49:53.926Z,54.13
2023-04-27T05:50:53.935Z,51.61
2023-04-27T05:51:53.920Z,52.43
2023-04-27T05:52:53.892Z,52.71
2023-04-27T05:53:53.887Z,51.48
2023-04-27T05:54:53.895Z,52.73
2023-04-27T05:55:53.879Z,52.12
2023-04-27T05:56:53.862Z,52.35
2023-04-27T05:58:04.583Z,53.83
2023-04-27T05:58:54.855Z,54.85
2023-04-27T05:59:53.819Z,55.07
2023-04-27T06:00:53.835Z,54.49
2023-04-27T06:01:53.813Z,51.75
2023-04-27T06:02:53.857Z,50.40
2023-04-27T06:03:53.934Z,48.39
2023-04-27T06:04:53.808Z,47.31
2023-04-27T06:05:53.783Z,45.20
2023-04-27T06:06:53.778Z,47.42
2023-04-27T06:07:53.796Z,48.52
2023-04-27T06:08:53.780Z,50.52
2023-04-27T06:09:53.753Z,50.27
2023-04-27T06:10:53.719Z,49.18
2023-04-27T06:11:53.708Z,49.89
2023-04-27T06:12:53.706Z,51.01
2023-04-27T06:13:53.705Z,49.87
2023-04-27T06:14:53.676Z,49.23
2023-04-27T06:15:53.742Z,48.30
2023-04-27T06:16:53.653Z,48.05
2023-04-27T06:17:53.705Z,47.85
2023-04-27T06:18:53.680Z,47.11
2023-04-27T06:19:53.634Z,47.17
2023-04-27T06:20:53.624Z,45.83
2023-04-27T06:21:53.608Z,45.15
2023-04-27T06:22:53.645Z,45.59
2023-04-27T06:23:53.600Z,44.25
2023-04-27T06:24:53.581Z,42.64
2023-04-27T06:25:53.551Z,43.75
2023-04-27T06:26:53.563Z,43.75
2023-04-27T06:27:53.555Z,43.34
2023-04-27T06:28:53.562Z,45.39
2023-04-27T06:29:53.534Z,44.48
2023-04-27T06:30:53.526Z,45.59
2023-04-27T06:31:53.551Z,47.49
2023-04-27T06:32:53.559Z,47.64
2023-04-27T06:33:53.506Z,46.34
2023-04-27T06:34:53.490Z,45.49
2023-04-27T06:35:53.514Z,44.76
2023-04-27T06:36:53.483Z,42.82
2023-04-27T06:37:53.470Z,42.92
2023-04-27T06:38:53.441Z,43.75
2023-04-27T06:39:53.455Z,43.73
2023-04-27T06:40:53.450Z,46.31
2023-04-27T06:41:53.406Z,47.42
2023-04-27T06:42:53.431Z,49.13
2023-04-27T06:43:53.395Z,52.42
2023-04-27T06:44:53.390Z,53.23
2023-04-27T06:45:53.536Z,52.60
2023-04-27T06:46:53.377Z,52.67
2023-04-27T06:47:53.421Z,52.65
2023-04-27T06:48:53.349Z,51.93
2023-04-27T06:49:53.347Z,51.91
2023-04-27T06:50:53.353Z,51.93
2023-04-27T06:51:53.335Z,53.59
2023-04-27T06:52:53.419Z,52.70
2023-04-27T06:53:53.294Z,54.67
2023-04-27T06:54:53.301Z,52.60
2023-04-27T06:55:53.290Z,51.62
2023-04-27T06:56:53.285Z,51.83
2023-04-27T06:57:53.293Z,52.34
2023-04-27T06:58:53.269Z,52.78
2023-04-27T06:59:53.242Z,53.59
2023-04-27T07:00:53.242Z,53.67
2023-04-27T07:01:53.309Z,53.77
2023-04-27T07:02:53.309Z,53.34
2023-04-27T07:03:53.338Z,51.68
2023-04-27T07:04:53.221Z,50.04
2023-04-27T07:05:53.217Z,50.07
2023-04-27T07:06:53.193Z,51.29
2023-04-27T07:07:53.178Z,49.92
2023-04-27T07:08:53.179Z,50.36
2023-04-27T07:09:53.160Z,49.73
2023-04-27T07:10:53.441Z,47.70
2023-04-27T07:11:53.133Z,46.48
2023-04-27T07:12:53.162Z,46.44
2023-04-27T07:13:53.117Z,45.56
2023-04-27T07:14:53.111Z,47.31
2023-04-27T07:15:53.125Z,47.05
2023-04-27T07:16:53.085Z,47.89
2023-04-27T07:17:53.100Z,48.86
2023-04-27T07:18:53.152Z,47.35
2023-04-27T07:19:53.050Z,45.29
2023-04-27T07:20:53.055Z,44.22
2023-04-27T07:21:53.037Z,44.60
2023-04-27T07:22:53.049Z,45.40
2023-04-27T07:23:54.438Z,44.67
2023-04-27T07:24:53.048Z,44.82
2023-04-27T07:25:53.038Z,44.16
2023-04-27T07:26:52.995Z,45.56
2023-04-27T07:27:52.977Z,47.85
2023-04-27T07:28:52.966Z,47.52
2023-04-27T07:29:52.959Z,46.03
2023-04-27T07:30:52.974Z,45.83
2023-04-27T07:31:53.076Z,43.65
2023-04-27T07:32:53.003Z,42.78
2023-04-27T07:33:52.933Z,42.03
2023-04-27T07:34:54.315Z,41.71
2023-04-27T07:35:54.061Z,42.21
2023-04-27T07:36:52.919Z,42.63
2023-04-27T07:37:52.881Z,42.57
2023-04-27T07:38:52.887Z,43.18
2023-04-27T07:39:52.865Z,42.07
2023-04-27T07:40:52.854Z,43.38
2023-04-27T07:41:52.927Z,42.55
2023-04-27T07:42:52.842Z,42.49
2023-04-27T07:43:52.824Z,44.22
2023-04-27T07:44:52.923Z,45.15
2023-04-27T07:45:52.825Z,45.07
2023-04-27T07:46:52.798Z,43.29
2023-04-27T07:47:52.790Z,43.06
2023-04-27T07:48:52.798Z,41.28
2023-04-27T07:49:52.759Z,40.84
2023-04-27T07:50:52.751Z,39.70
2023-04-27T07:51:52.743Z,39.28
2023-04-27T07:52:53.765Z,39.48
2023-04-27T07:53:52.766Z,40.92
2023-04-27T07:54:52.742Z,39.91
2023-04-27T07:55:52.731Z,39.61
2023-04-27T07:56:52.706Z,39.34
2023-04-27T07:57:52.704Z,40.15
2023-04-27T07:58:52.687Z,39.95
2023-04-27T07:59:52.714Z,39.64
2023-04-27T08:00:52.658Z,39.42
2023-04-27T08:01:54.359Z,39.52
2023-04-27T08:02:52.925Z,40.31
2023-04-27T08:03:52.853Z,39.50
2023-04-27T08:04:52.834Z,39.84
2023-04-27T08:05:52.974Z,40.67
2023-04-27T08:06:53.190Z,40.55
2023-04-27T08:07:53.138Z,39.93
2023-04-27T08:08:52.577Z,38.09
2023-04-27T08:09:52.612Z,38.19
2023-04-27T08:10:52.571Z,37.70
2023-04-27T08:11:52.565Z,40.33
2023-04-27T08:12:52.545Z,37.42
2023-04-27T08:13:52.579Z,37.32
2023-04-27T08:14:52.513Z,38.59
2023-04-27T08:15:52.583Z,37.97
2023-04-27T08:16:52.544Z,35.75
2023-04-27T08:17:52.575Z,36.25
2023-04-27T08:18:52.507Z,34.35
2023-04-27T08:19:52.493Z,36.37
2023-04-27T08:20:52.462Z,37.37
2023-04-27T08:21:52.480Z,36.34
2023-04-27T08:22:52.455Z,34.13
2023-04-27T08:23:52.445Z,35.24
2023-04-27T08:24:52.438Z,35.43
2023-04-27T08:25:52.423Z,35.23
2023-04-27T08:26:52.427Z,35.63
2023-04-27T08:27:52.409Z,35.24
2023-04-27T08:28:52.388Z,34.64
2023-04-27T08:29:52.402Z,34.95
2023-04-27T08:30:53.490Z,35.36
2023-04-27T08:31:54.361Z,35.35
2023-04-27T08:32:52.422Z,37.26
2023-04-27T08:33:52.344Z,35.52
2023-04-27T08:34:52.341Z,36.57
2023-04-27T08:35:52.353Z,34.28
2023-04-27T08:36:52.323Z,34.82
2023-04-27T08:37:52.306Z,35.24
2023-04-27T08:38:52.299Z,34.84
2023-04-27T08:39:52.417Z,37.26
2023-04-27T08:40:52.283Z,37.04
2023-04-27T08:41:52.284Z,35.50
2023-04-27T08:42:52.254Z,34.72
2023-04-27T08:43:52.315Z,35.36
2023-04-27T08:44:52.229Z,36.39
2023-04-27T08:45:52.287Z,36.99
2023-04-27T08:46:52.288Z,36.49
2023-04-27T08:47:52.222Z,36.61
2023-04-27T08:48:52.193Z,38.41
2023-04-27T08:49:52.190Z,36.90
2023-04-27T08:50:52.190Z,36.77
2023-04-27T08:51:52.163Z,35.38
2023-04-27T08:52:52.186Z,35.57
2023-04-27T08:53:52.153Z,36.27
2023-04-27T08:54:52.143Z,36.88
2023-04-27T08:55:52.194Z,35.65
2023-04-27T08:56:52.141Z,36.46
2023-04-27T08:57:52.103Z,35.24
2023-04-27T08:58:52.179Z,36.84
2023-04-27T08:59:52.096Z,35.16
2023-04-27T09:00:52.678Z,36.46
2023-04-27T09:01:53.269Z,36.76
2023-04-27T09:02:52.158Z,36.55
2023-04-27T09:03:52.162Z,36.68
2023-04-27T09:04:52.142Z,35.57
2023-04-27T09:06:03.711Z,36.76
2023-04-27T09:06:54.046Z,37.38
2023-04-27T09:07:52.023Z,35.97
2023-04-27T09:08:52.002Z,38.28
2023-04-27T09:09:51.991Z,36.05
2023-04-27T09:10:51.977Z,36.57
2023-04-27T09:11:51.966Z,37.04
2023-04-27T09:12:52.064Z,37.95
2023-04-27T09:13:51.966Z,35.60
2023-04-27T09:14:51.934Z,34.99
2023-04-27T09:15:51.963Z,36.81
2023-04-27T09:16:52.000Z,34.79
2023-04-27T09:17:51.932Z,35.43
2023-04-27T09:18:51.924Z,35.61
2023-04-27T09:19:51.895Z,35.60
2023-04-27T09:20:51.946Z,35.21
2023-04-27T09:21:51.897Z,37.02
2023-04-27T09:22:51.881Z,35.93
2023-04-27T09:23:51.862Z,35.93
2023-04-27T09:24:51.864Z,38.13
2023-04-27T09:25:51.860Z,35.31
2023-04-27T09:26:51.816Z,35.11
2023-04-27T09:27:51.830Z,34.79
2023-04-27T09:28:51.816Z,33.88
2023-04-27T09:29:52.795Z,34.77
2023-04-27T09:30:51.814Z,34.69
2023-04-27T09:31:51.843Z,34.91
2023-04-27T09:32:51.788Z,34.67
2023-04-27T09:33:51.759Z,35.97
2023-04-27T09:34:51.770Z,34.47
2023-04-27T09:35:51.745Z,35.50
2023-04-27T09:36:51.823Z,35.01
2023-04-27T09:37:51.730Z,34.79
2023-04-27T09:38:51.717Z,35.26
2023-04-27T09:39:51.734Z,35.06
2023-04-27T09:40:51.696Z,33.85
2023-04-27T09:41:51.686Z,34.94
2023-04-27T09:42:51.682Z,35.33
2023-04-27T09:43:51.684Z,34.49
2023-04-27T09:44:51.646Z,32.90
2023-04-27T09:45:51.697Z,33.28
2023-04-27T09:46:51.672Z,34.51
2023-04-27T09:47:51.678Z,33.01
2023-04-27T09:48:51.642Z,34.24
2023-04-27T09:49:51.601Z,34.64
2023-04-27T09:50:51.599Z,34.47
2023-04-27T09:51:51.628Z,34.08
2023-04-27T09:52:51.604Z,35.19
2023-04-27T09:53:51.590Z,35.41
2023-04-27T09:54:51.561Z,35.31
2023-04-27T09:55:51.728Z,34.64
2023-04-27T09:56:52.564Z,34.94
2023-04-27T09:57:51.540Z,35.36
2023-04-27T09:58:51.520Z,34.79
2023-04-27T09:59:51.517Z,36.12
2023-04-27T10:00:51.524Z,37.92
2023-04-27T10:01:51.542Z,36.93
2023-04-27T10:02:53.661Z,36.71
2023-04-27T10:03:52.570Z,36.59
2023-04-27T10:04:51.486Z,37.99
2023-04-27T10:05:51.489Z,37.59
2023-04-27T10:06:51.441Z,34.84
2023-04-27T10:07:51.421Z,34.94
2023-04-27T10:08:51.408Z,37.06
2023-04-27T10:09:51.450Z,36.13
2023-04-27T10:10:51.395Z,34.52
2023-04-27T10:11:51.387Z,36.74
2023-04-27T10:12:51.408Z,35.21
2023-04-27T10:13:52.330Z,36.72
2023-04-27T10:14:51.360Z,36.71
2023-04-27T10:15:51.445Z,34.00
2023-04-27T10:16:51.379Z,34.10
2023-04-27T10:17:51.371Z,34.30
2023-04-27T10:18:51.320Z,34.00
2023-04-27T10:19:53.801Z,34.89
2023-04-27T10:20:51.331Z,33.88
2023-04-27T10:21:51.298Z,36.19
2023-04-27T10:22:51.394Z,35.88
2023-04-27T10:23:51.316Z,36.19
2023-04-27T10:24:51.260Z,35.08
2023-04-27T10:25:51.284Z,35.70
2023-04-27T10:26:51.243Z,35.19
2023-04-27T10:27:51.239Z,34.77
2023-04-27T10:28:51.229Z,34.89
2023-04-27T10:29:51.221Z,34.08
2023-04-27T10:30:51.254Z,34.50
2023-04-27T10:31:51.212Z,34.32
2023-04-27T10:32:51.316Z,35.55
2023-04-27T10:33:51.174Z,36.57
2023-04-27T10:34:51.178Z,36.57
2023-04-27T10:35:51.161Z,35.39
2023-04-27T10:36:51.148Z,35.53
2023-04-27T10:37:51.155Z,36.54
2023-04-27T10:38:51.180Z,37.16
2023-04-27T10:39:52.239Z,38.08
2023-04-27T10:40:51.107Z,37.88
2023-04-27T10:41:51.132Z,37.25
2023-04-27T10:42:51.107Z,38.04
2023-04-27T10:43:51.089Z,38.02
2023-04-27T10:44:51.136Z,35.90
2023-04-27T10:45:51.103Z,36.51
2023-04-27T10:46:51.081Z,35.60
2023-04-27T10:47:51.106Z,36.08
2023-04-27T10:48:51.033Z,36.27
2023-04-27T10:49:51.027Z,39.61
2023-04-27T10:50:51.047Z,37.10
2023-04-27T10:51:51.011Z,38.02
2023-04-27T10:52:51.057Z,37.84
2023-04-27T10:53:51.062Z,37.76
2023-04-27T10:54:50.994Z,38.87
2023-04-27T10:55:50.979Z,39.31
2023-04-27T10:56:50.951Z,38.93
2023-04-27T10:57:51.058Z,39.55
2023-04-27T10:58:50.956Z,40.69
2023-04-27T10:59:50.953Z,39.59
2023-04-27T11:00:50.920Z,41.25
2023-04-27T11:01:50.941Z,41.15
2023-04-27T11:02:50.932Z,41.03
2023-04-27T11:03:50.982Z,41.42
2023-04-27T11:04:50.987Z,40.62
2023-04-27T11:05:50.942Z,41.42
2023-04-27T11:06:50.871Z,41.01
2023-04-27T11:07:50.852Z,40.81
2023-04-27T11:08:50.866Z,41.13
2023-04-27T11:09:50.820Z,40.93
2023-04-27T11:10:50.844Z,41.24
2023-04-27T11:11:50.830Z,40.61
2023-04-27T11:12:50.831Z,40.20
2023-04-27T11:13:50.835Z,40.48
2023-04-27T11:14:50.779Z,40.16
2023-04-27T11:15:50.855Z,39.51
2023-04-27T11:16:50.775Z,39.31
2023-04-27T11:17:50.787Z,38.21
2023-04-27T11:18:50.761Z,40.22
2023-04-27T11:19:50.728Z,39.80
2023-04-27T11:20:50.716Z,38.48
2023-04-27T11:21:50.740Z,39.68
2023-04-27T11:22:50.693Z,38.50
2023-04-27T11:23:50.710Z,40.12
2023-04-27T11:24:50.698Z,39.31
2023-04-27T11:25:50.664Z,39.11
2023-04-27T11:26:50.694Z,38.93
2023-04-27T11:27:50.646Z,41.24
2023-04-27T11:28:50.641Z,40.41
2023-04-27T11:29:50.717Z,39.68
2023-04-27T11:30:50.629Z,39.68
2023-04-27T11:31:50.645Z,38.37
2023-04-27T11:32:50.623Z,38.37
2023-04-27T11:33:50.612Z,38.06
2023-04-27T11:34:50.592Z,39.39
2023-04-27T11:35:50.593Z,41.03
2023-04-27T11:36:50.566Z,40.00
2023-04-27T11:37:50.553Z,40.69
2023-04-27T11:38:50.586Z,39.75
2023-04-27T11:39:50.557Z,37.05
2023-04-27T11:40:50.527Z,37.05
2023-04-27T11:41:50.498Z,38.85
2023-04-27T11:42:50.507Z,39.06
2023-04-27T11:43:50.492Z,39.24
2023-04-27T11:44:50.537Z,38.92
2023-04-27T11:45:50.487Z,37.89
2023-04-27T11:46:50.508Z,36.98
2023-04-27T11:47:50.488Z,37.77
2023-04-27T11:48:50.438Z,36.07
2023-04-27T11:49:50.496Z,36.71
2023-04-27T11:50:50.452Z,38.63
2023-04-27T11:51:50.446Z,37.42
2023-04-27T11:52:50.422Z,37.34
2023-04-27T11:53:50.388Z,36.44
2023-04-27T11:54:50.410Z,37.74
2023-04-27T11:55:50.410Z,38.43
2023-04-27T11:56:50.380Z,38.93
2023-04-27T11:57:50.376Z,38.82
2023-04-27T11:58:50.358Z,37.81
2023-04-27T11:59:50.372Z,37.10
2023-04-27T12:00:50.405Z,38.51
2023-04-27T12:01:50.377Z,37.99
2023-04-27T12:02:50.489Z,36.08
2023-04-27T12:03:50.518Z,37.40
2023-04-27T12:04:50.440Z,38.01
2023-04-27T12:05:50.384Z,37.89
2023-04-27T12:06:50.289Z,37.48
2023-04-27T12:07:50.281Z,37.28
2023-04-27T12:08:50.272Z,37.77
2023-04-27T12:09:50.269Z,36.66
2023-04-27T12:10:50.242Z,36.47
2023-04-27T12:11:50.294Z,37.38
2023-04-27T12:12:50.282Z,36.57
2023-04-27T12:13:50.206Z,36.08
2023-04-27T12:14:50.202Z,36.25
2023-04-27T12:15:50.187Z,37.59
2023-04-27T12:16:50.202Z,37.38
2023-04-27T12:17:50.262Z,37.18
2023-04-27T12:18:50.169Z,35.57
2023-04-27T12:19:50.216Z,36.08
2023-04-27T12:20:50.142Z,36.59
2023-04-27T12:21:50.154Z,37.40
2023-04-27T12:22:50.146Z,35.08
2023-04-27T12:23:50.141Z,35.78
2023-04-27T12:24:50.106Z,36.69
2023-04-27T12:25:50.137Z,37.89
2023-04-27T12:26:50.113Z,36.68
2023-04-27T12:27:50.092Z,36.57
2023-04-27T12:28:50.065Z,35.44
2023-04-27T12:29:50.073Z,36.55
2023-04-27T12:30:50.126Z,35.95
2023-04-27T12:31:50.055Z,35.24
2023-04-27T12:32:50.041Z,35.93
2023-04-27T12:33:50.033Z,36.24
2023-04-27T12:34:50.066Z,36.24
2023-04-27T12:35:50.002Z,36.22
2023-04-27T12:36:50.009Z,36.32
2023-04-27T12:37:50.004Z,34.99
2023-04-27T12:38:49.958Z,33.21
2023-04-27T12:39:49.997Z,34.92
2023-04-27T12:40:49.965Z,34.95
2023-04-27T12:41:49.952Z,35.04
2023-04-27T12:42:49.935Z,35.04
2023-04-27T12:43:49.935Z,35.24
2023-04-27T12:44:49.910Z,34.13
2023-04-27T12:45:50.008Z,34.44
2023-04-27T12:46:50.055Z,34.44
2023-04-27T12:48:01.118Z,34.74
2023-04-27T12:48:50.951Z,35.14
2023-04-27T12:49:49.875Z,34.15
2023-04-27T12:50:49.855Z,35.46
2023-04-27T12:51:49.846Z,36.86
2023-04-27T12:52:49.852Z,34.45